Cedar Point, Kansas
Current Conditions -  °F | °C
As of 3:15 PM on Saturday 20 Dec 2014 (Local Time) from KEWK Reporting Station
Clear Clear  
Wind Chill: 39°   Ceiling: Unl
Heat Index: 46°   Visibility: 10mi
Dew Point: 36°   Wind: 17mph
Humidity: 66%   Direction: 200°SSW
Pressure: 30.09"   Gusts: 22mph
Location:  38.26°N, 96.82°W
Report Text: KEWK 202115Z AUTO 20015G19KT 10SM CLR 08/02 A3009 RMK AO1
Loading
Personal Weather Stations






























Interactive Weather Map New forecast layout! Learn more

10-Day Weather Forecast

Advertisements
Track Severe Weather on mobile